sensor_id;sensor_type;location;lat;lon;timestamp;pressure;altitude;pressure_sealevel;temperature;humidity
4024;BME280;2026;51.002;13.668;2023-02-03T00:04:22;99734.53;;;2.54;90.83
4024;BME280;2026;51.002;13.668;2023-02-03T00:09:26;99736.28;;;2.54;90.61
4024;BME280;2026;51.002;13.668;2023-02-03T00:14:29;99737.38;;;2.51;90.28
4024;BME280;2026;51.002;13.668;2023-02-03T00:19:34;99729.09;;;2.47;91.54
4024;BME280;2026;51.002;13.668;2023-02-03T00:24:38;99725.44;;;2.40;91.87
4024;BME280;2026;51.002;13.668;2023-02-03T00:29:41;99731.88;;;2.36;91.92
4024;BME280;2026;51.002;13.668;2023-02-03T00:34:44;99725.59;;;2.39;92.16
4024;BME280;2026;51.002;13.668;2023-02-03T00:39:48;99709.78;;;2.42;92.16
4024;BME280;2026;51.002;13.668;2023-02-03T00:44:52;99701.00;;;2.53;91.21
4024;BME280;2026;51.002;13.668;2023-02-03T00:49:55;99683.63;;;2.45;92.66
4024;BME280;2026;51.002;13.668;2023-02-03T00:55:00;99680.13;;;2.26;93.58
4024;BME280;2026;51.002;13.668;2023-02-03T01:00:04;99669.94;;;2.53;91.93
4024;BME280;2026;51.002;13.668;2023-02-03T01:05:07;99662.81;;;2.64;91.91
4024;BME280;2026;51.002;13.668;2023-02-03T01:10:11;99653.41;;;2.63;92.23
4024;BME280;2026;51.002;13.668;2023-02-03T01:15:15;99658.66;;;2.44;93.20
4024;BME280;2026;51.002;13.668;2023-02-03T01:20:18;99636.16;;;2.54;92.91
4024;BME280;2026;51.002;13.668;2023-02-03T01:25:23;99620.09;;;2.50;93.31
4024;BME280;2026;51.002;13.668;2023-02-03T01:30:26;99599.22;;;2.34;92.70
4024;BME280;2026;51.002;13.668;2023-02-03T01:35:29;99578.56;;;2.24;93.23
4024;BME280;2026;51.002;13.668;2023-02-03T01:40:41;99570.75;;;2.06;94.43
4024;BME280;2026;51.002;13.668;2023-02-03T01:45:44;99551.72;;;2.25;94.52
4024;BME280;2026;51.002;13.668;2023-02-03T01:50:47;99554.25;;;2.35;93.87
4024;BME280;2026;51.002;13.668;2023-02-03T01:55:52;99557.22;;;2.40;93.73
4024;BME280;2026;51.002;13.668;2023-02-03T02:00:57;99541.19;;;2.55;93.50
4024;BME280;2026;51.002;13.668;2023-02-03T02:06:03;99523.94;;;2.45;93.33
4024;BME280;2026;51.002;13.668;2023-02-03T02:11:08;99506.50;;;2.47;92.84
4024;BME280;2026;51.002;13.668;2023-02-03T02:16:15;99495.34;;;2.47;93.77
4024;BME280;2026;51.002;13.668;2023-02-03T02:21:41;99473.81;;;2.46;93.38
4024;BME280;2026;51.002;13.668;2023-02-03T02:26:56;99479.38;;;2.52;94.00
4024;BME280;2026;51.002;13.668;2023-02-03T02:32:15;99470.38;;;2.64;94.00
4024;BME280;2026;51.002;13.668;2023-02-03T02:37:25;99460.63;;;2.76;94.60
4024;BME280;2026;51.002;13.668;2023-02-03T02:42:39;99448.59;;;2.93;94.00
4024;BME280;2026;51.002;13.668;2023-02-03T02:47:46;99435.41;;;3.04;94.37
4024;BME280;2026;51.002;13.668;2023-02-03T02:52:50;99433.16;;;3.10;95.78
4024;BME280;2026;51.002;13.668;2023-02-03T02:57:56;99429.66;;;3.19;95.56
4024;BME280;2026;51.002;13.668;2023-02-03T03:03:13;99401.53;;;3.32;96.10
4024;BME280;2026;51.002;13.668;2023-02-03T03:08:21;99390.72;;;3.45;96.10
4024;BME280;2026;51.002;13.668;2023-02-03T03:13:29;99380.72;;;3.59;95.84
4024;BME280;2026;51.002;13.668;2023-02-03T03:18:38;99373.47;;;3.71;96.17
4024;BME280;2026;51.002;13.668;2023-02-03T03:23:46;99365.53;;;3.81;96.86
4024;BME280;2026;51.002;13.668;2023-02-03T03:28:58;99354.34;;;3.97;97.03
4024;BME280;2026;51.002;13.668;2023-02-03T03:34:04;99361.03;;;4.08;97.01
4024;BME280;2026;51.002;13.668;2023-02-03T03:39:12;99350.16;;;4.12;97.84
4024;BME280;2026;51.002;13.668;2023-02-03T03:44:17;99346.28;;;4.25;97.88
4024;BME280;2026;51.002;13.668;2023-02-03T03:49:23;99345.63;;;4.39;97.86
4024;BME280;2026;51.002;13.668;2023-02-03T03:54:29;99359.06;;;4.51;98.13
4024;BME280;2026;51.002;13.668;2023-02-03T03:59:36;99341.69;;;4.60;98.52
4024;BME280;2026;51.002;13.668;2023-02-03T04:04:44;99324.94;;;4.79;98.22
4024;BME280;2026;51.002;13.668;2023-02-03T04:09:47;99302.31;;;4.88;97.64
4024;BME280;2026;51.002;13.668;2023-02-03T04:14:50;99292.28;;;4.85;98.26
4024;BME280;2026;51.002;13.668;2023-02-03T04:19:55;99280.53;;;4.97;98.39
4024;BME280;2026;51.002;13.668;2023-02-03T04:24:58;99278.22;;;5.03;98.17
4024;BME280;2026;51.002;13.668;2023-02-03T04:30:01;99279.53;;;5.07;97.81
4024;BME280;2026;51.002;13.668;2023-02-03T04:35:06;99265.66;;;5.15;97.29
4024;BME280;2026;51.002;13.668;2023-02-03T04:40:10;99284.16;;;5.20;97.06
4024;BME280;2026;51.002;13.668;2023-02-03T04:45:13;99283.31;;;5.28;96.77
4024;BME280;2026;51.002;13.668;2023-02-03T04:50:18;99282.00;;;5.32;96.34
4024;BME280;2026;51.002;13.668;2023-02-03T04:55:21;99269.63;;;5.34;96.84
4024;BME280;2026;51.002;13.668;2023-02-03T05:00:24;99261.19;;;5.32;96.63
4024;BME280;2026;51.002;13.668;2023-02-03T05:05:29;99260.16;;;5.41;96.01
4024;BME280;2026;51.002;13.668;2023-02-03T05:10:32;99249.59;;;5.43;96.44
4024;BME280;2026;51.002;13.668;2023-02-03T05:15:35;99271.38;;;5.42;95.81
4024;BME280;2026;51.002;13.668;2023-02-03T05:20:39;99228.94;;;5.41;96.03
4024;BME280;2026;51.002;13.668;2023-02-03T05:25:42;99221.91;;;5.50;94.73
4024;BME280;2026;51.002;13.668;2023-02-03T05:30:46;99215.47;;;5.61;95.00
4024;BME280;2026;51.002;13.668;2023-02-03T05:35:50;99204.56;;;5.65;94.20
4024;BME280;2026;51.002;13.668;2023-02-03T05:40:53;99194.31;;;5.64;94.46
4024;BME280;2026;51.002;13.668;2023-02-03T05:46:14;99209.22;;;5.70;93.71
4024;BME280;2026;51.002;13.668;2023-02-03T05:51:18;99212.16;;;5.67;94.28
4024;BME280;2026;51.002;13.668;2023-02-03T05:56:21;99205.81;;;5.70;93.76
4024;BME280;2026;51.002;13.668;2023-02-03T06:01:24;99230.31;;;5.75;93.96
4024;BME280;2026;51.002;13.668;2023-02-03T06:06:28;99226.56;;;5.78;93.79
4024;BME280;2026;51.002;13.668;2023-02-03T06:11:34;99209.78;;;5.80;94.01
4024;BME280;2026;51.002;13.668;2023-02-03T06:16:38;99213.66;;;5.85;94.20
4024;BME280;2026;51.002;13.668;2023-02-03T06:21:42;99211.69;;;5.87;93.91
4024;BME280;2026;51.002;13.668;2023-02-03T06:26:45;99190.16;;;5.93;93.43
4024;BME280;2026;51.002;13.668;2023-02-03T06:31:48;99172.13;;;5.91;93.12
4024;BME280;2026;51.002;13.668;2023-02-03T06:36:52;99192.41;;;5.96;92.45
4024;BME280;2026;51.002;13.668;2023-02-03T06:41:55;99180.66;;;6.00;92.99
4024;BME280;2026;51.002;13.668;2023-02-03T06:46:58;99173.81;;;5.99;92.77
4024;BME280;2026;51.002;13.668;2023-02-03T06:52:04;99174.63;;;6.00;92.83
4024;BME280;2026;51.002;13.668;2023-02-03T06:57:07;99150.38;;;5.99;92.17
4024;BME280;2026;51.002;13.668;2023-02-03T07:02:10;99157.59;;;6.12;94.35
4024;BME280;2026;51.002;13.668;2023-02-03T07:07:15;99130.38;;;6.15;92.97
4024;BME280;2026;51.002;13.668;2023-02-03T07:12:18;99116.13;;;6.11;92.17
4024;BME280;2026;51.002;13.668;2023-02-03T07:17:21;99103.44;;;6.07;92.14
4024;BME280;2026;51.002;13.668;2023-02-03T07:22:25;99107.88;;;6.07;92.22
4024;BME280;2026;51.002;13.668;2023-02-03T07:27:28;99105.88;;;6.09;90.58
4024;BME280;2026;51.002;13.668;2023-02-03T07:32:31;99096.72;;;6.13;91.23
4024;BME280;2026;51.002;13.668;2023-02-03T07:37:35;99090.09;;;6.11;89.84
4024;BME280;2026;51.002;13.668;2023-02-03T07:42:40;99099.22;;;6.21;89.00
4024;BME280;2026;51.002;13.668;2023-02-03T07:47:43;99089.00;;;6.20;89.39
4024;BME280;2026;51.002;13.668;2023-02-03T07:52:50;99079.94;;;6.16;89.66
4024;BME280;2026;51.002;13.668;2023-02-03T07:57:54;99074.75;;;6.16;89.95
4024;BME280;2026;51.002;13.668;2023-02-03T08:02:57;99070.97;;;6.03;91.46
4024;BME280;2026;51.002;13.668;2023-02-03T08:08:01;99062.00;;;6.06;91.85
4024;BME280;2026;51.002;13.668;2023-02-03T08:13:04;99045.84;;;6.11;90.64
4024;BME280;2026;51.002;13.668;2023-02-03T08:18:07;99042.97;;;6.05;91.59
4024;BME280;2026;51.002;13.668;2023-02-03T08:23:11;99041.13;;;6.21;91.41
4024;BME280;2026;51.002;13.668;2023-02-03T08:28:14;99029.50;;;6.17;91.31
4024;BME280;2026;51.002;13.668;2023-02-03T08:33:17;99039.91;;;6.17;91.73
4024;BME280;2026;51.002;13.668;2023-02-03T08:38:21;99025.00;;;6.11;92.09
4024;BME280;2026;51.002;13.668;2023-02-03T08:43:25;99040.69;;;6.17;91.78
4024;BME280;2026;51.002;13.668;2023-02-03T08:48:27;99020.25;;;6.14;92.09
4024;BME280;2026;51.002;13.668;2023-02-03T08:53:32;99007.50;;;6.04;93.14
4024;BME280;2026;51.002;13.668;2023-02-03T08:58:35;99018.63;;;6.13;92.96
4024;BME280;2026;51.002;13.668;2023-02-03T09:03:38;99006.97;;;6.09;92.74
4024;BME280;2026;51.002;13.668;2023-02-03T09:08:43;98998.97;;;6.11;92.09
4024;BME280;2026;51.002;13.668;2023-02-03T09:13:46;98982.25;;;6.20;92.45
4024;BME280;2026;51.002;13.668;2023-02-03T09:18:50;98955.41;;;6.19;93.44
4024;BME280;2026;51.002;13.668;2023-02-03T09:23:55;98972.22;;;6.17;93.39
4024;BME280;2026;51.002;13.668;2023-02-03T09:28:57;98954.34;;;6.14;93.68
4024;BME280;2026;51.002;13.668;2023-02-03T09:34:00;98956.59;;;6.17;93.95
4024;BME280;2026;51.002;13.668;2023-02-03T09:39:05;98962.38;;;6.12;93.75
4024;BME280;2026;51.002;13.668;2023-02-03T09:44:12;98925.41;;;6.24;93.76
4024;BME280;2026;51.002;13.668;2023-02-03T09:49:23;98910.47;;;6.11;94.54
4024;BME280;2026;51.002;13.668;2023-02-03T09:54:35;98879.81;;;6.06;94.93
4024;BME280;2026;51.002;13.668;2023-02-03T09:59:39;98890.44;;;6.11;94.32
4024;BME280;2026;51.002;13.668;2023-02-03T10:04:49;98889.53;;;6.19;93.79
4024;BME280;2026;51.002;13.668;2023-02-03T10:09:59;98861.75;;;6.26;93.27
4024;BME280;2026;51.002;13.668;2023-02-03T10:15:33;98870.16;;;6.28;93.98
4024;BME280;2026;51.002;13.668;2023-02-03T10:20:41;98854.94;;;6.25;93.54
4024;BME280;2026;51.002;13.668;2023-02-03T10:25:49;98845.53;;;6.24;94.13
4024;BME280;2026;51.002;13.668;2023-02-03T10:30:59;98824.56;;;6.32;93.73
4024;BME280;2026;51.002;13.668;2023-02-03T10:36:13;98819.69;;;6.29;94.05
4024;BME280;2026;51.002;13.668;2023-02-03T10:41:21;98814.47;;;6.22;94.42
4024;BME280;2026;51.002;13.668;2023-02-03T10:46:27;98803.72;;;6.32;94.13
4024;BME280;2026;51.002;13.668;2023-02-03T10:51:35;98784.09;;;6.37;93.88
4024;BME280;2026;51.002;13.668;2023-02-03T10:56:40;98795.75;;;6.41;93.86
4024;BME280;2026;51.002;13.668;2023-02-03T11:01:45;98786.56;;;6.45;93.32
4024;BME280;2026;51.002;13.668;2023-02-03T11:06:54;98773.16;;;6.48;92.48
4024;BME280;2026;51.002;13.668;2023-02-03T11:12:11;98769.78;;;6.54;92.16
4024;BME280;2026;51.002;13.668;2023-02-03T11:17:16;98783.03;;;6.59;91.82
4024;BME280;2026;51.002;13.668;2023-02-03T11:22:27;98781.25;;;6.60;92.76
4024;BME280;2026;51.002;13.668;2023-02-03T11:27:33;98782.25;;;6.59;93.20
4024;BME280;2026;51.002;13.668;2023-02-03T11:32:38;98758.59;;;6.60;94.00
4024;BME280;2026;51.002;13.668;2023-02-03T11:37:44;98770.41;;;6.56;94.75
4024;BME280;2026;51.002;13.668;2023-02-03T11:43:01;98749.56;;;6.56;95.99
4024;BME280;2026;51.002;13.668;2023-02-03T11:48:14;98757.38;;;6.56;96.33
4024;BME280;2026;51.002;13.668;2023-02-03T11:53:28;98767.25;;;6.68;95.48
4024;BME280;2026;51.002;13.668;2023-02-03T11:58:54;98761.44;;;6.66;96.02
4024;BME280;2026;51.002;13.668;2023-02-03T12:04:14;98745.25;;;6.77;94.90
4024;BME280;2026;51.002;13.668;2023-02-03T12:09:30;98716.41;;;6.85;95.49
4024;BME280;2026;51.002;13.668;2023-02-03T12:14:46;98631.63;;;6.89;94.93
4024;BME280;2026;51.002;13.668;2023-02-03T12:20:04;98563.88;;;6.96;94.23
4024;BME280;2026;51.002;13.668;2023-02-03T12:25:19;98649.94;;;7.10;94.15
4024;BME280;2026;51.002;13.668;2023-02-03T12:30:28;98665.75;;;7.08;93.79
4024;BME280;2026;51.002;13.668;2023-02-03T12:35:37;98669.38;;;7.07;93.13
4024;BME280;2026;51.002;13.668;2023-02-03T12:40:44;98668.00;;;7.11;93.18
4024;BME280;2026;51.002;13.668;2023-02-03T12:45:53;98686.06;;;7.20;92.61
4024;BME280;2026;51.002;13.668;2023-02-03T12:51:00;98675.03;;;7.17;92.21
4024;BME280;2026;51.002;13.668;2023-02-03T12:56:08;98678.22;;;7.26;92.26
4024;BME280;2026;51.002;13.668;2023-02-03T13:01:18;98676.63;;;7.19;92.79
4024;BME280;2026;51.002;13.668;2023-02-03T13:06:26;98677.63;;;7.17;92.55
4024;BME280;2026;51.002;13.668;2023-02-03T13:11:35;98661.59;;;7.21;92.88
4024;BME280;2026;51.002;13.668;2023-02-03T13:16:43;98699.47;;;7.16;93.24
4024;BME280;2026;51.002;13.668;2023-02-03T13:21:50;98682.81;;;7.04;93.47
4024;BME280;2026;51.002;13.668;2023-02-03T13:27:20;98739.91;;;6.99;93.26
4024;BME280;2026;51.002;13.668;2023-02-03T13:32:40;98777.09;;;6.72;90.69
4024;BME280;2026;51.002;13.668;2023-02-03T13:38:08;98782.09;;;6.39;87.37
4024;BME280;2026;51.002;13.668;2023-02-03T13:43:18;98782.75;;;6.12;89.61
4024;BME280;2026;51.002;13.668;2023-02-03T13:48:43;98783.81;;;5.96;89.43
4024;BME280;2026;51.002;13.668;2023-02-03T13:53:48;98804.50;;;6.04;88.92
4024;BME280;2026;51.002;13.668;2023-02-03T13:59:03;98801.75;;;6.13;83.77
4024;BME280;2026;51.002;13.668;2023-02-03T14:10:12;98819.00;;;6.14;82.63
4024;BME280;2026;51.002;13.668;2023-02-03T14:15:20;98825.31;;;6.26;81.78
4024;BME280;2026;51.002;13.668;2023-02-03T14:20:40;98830.25;;;6.21;81.05
4024;BME280;2026;51.002;13.668;2023-02-03T14:25:46;98831.25;;;6.20;81.31
4024;BME280;2026;51.002;13.668;2023-02-03T14:31:08;98846.13;;;6.26;80.96
4024;BME280;2026;51.002;13.668;2023-02-03T14:36:28;98835.84;;;6.18;81.70
4024;BME280;2026;51.002;13.668;2023-02-03T14:41:43;98861.69;;;6.19;81.64
4024;BME280;2026;51.002;13.668;2023-02-03T14:46:59;98857.91;;;6.22;81.47
4024;BME280;2026;51.002;13.668;2023-02-03T14:52:15;98854.63;;;6.13;81.07
4024;BME280;2026;51.002;13.668;2023-02-03T14:57:31;98868.66;;;6.12;81.31
4024;BME280;2026;51.002;13.668;2023-02-03T15:08:38;98862.31;;;6.00;81.02
4024;BME280;2026;51.002;13.668;2023-02-03T15:13:43;98868.00;;;6.10;80.62
4024;BME280;2026;51.002;13.668;2023-02-03T15:18:53;98885.91;;;5.98;80.13
4024;BME280;2026;51.002;13.668;2023-02-03T15:23:58;98889.69;;;5.96;78.85
4024;BME280;2026;51.002;13.668;2023-02-03T15:29:03;98887.97;;;6.03;78.89
4024;BME280;2026;51.002;13.668;2023-02-03T15:34:13;98891.25;;;6.12;77.55
4024;BME280;2026;51.002;13.668;2023-02-03T15:39:32;98899.31;;;5.95;78.94
4024;BME280;2026;51.002;13.668;2023-02-03T15:44:41;98901.97;;;6.02;79.13
4024;BME280;2026;51.002;13.668;2023-02-03T15:49:55;98913.94;;;5.96;80.08
4024;BME280;2026;51.002;13.668;2023-02-03T15:55:14;98928.22;;;6.00;81.35
4024;BME280;2026;51.002;13.668;2023-02-03T16:00:33;98923.00;;;6.00;80.82
4024;BME280;2026;51.002;13.668;2023-02-03T16:05:37;98926.88;;;6.11;78.40
4024;BME280;2026;51.002;13.668;2023-02-03T16:10:41;98938.22;;;6.03;78.94
4024;BME280;2026;51.002;13.668;2023-02-03T16:15:56;98952.84;;;6.04;77.63
4024;BME280;2026;51.002;13.668;2023-02-03T16:21:01;98960.28;;;6.07;76.97
4024;BME280;2026;51.002;13.668;2023-02-03T16:26:17;98963.28;;;6.04;77.24
4024;BME280;2026;51.002;13.668;2023-02-03T16:31:21;98974.28;;;6.06;77.33
4024;BME280;2026;51.002;13.668;2023-02-03T16:36:42;98981.34;;;5.91;78.80
4024;BME280;2026;51.002;13.668;2023-02-03T16:42:13;98977.00;;;5.98;78.17
4024;BME280;2026;51.002;13.668;2023-02-03T16:47:37;99001.69;;;6.02;79.27
4024;BME280;2026;51.002;13.668;2023-02-03T16:52:58;98995.38;;;6.12;77.18
4024;BME280;2026;51.002;13.668;2023-02-03T16:58:02;99006.53;;;6.05;78.45
4024;BME280;2026;51.002;13.668;2023-02-03T17:03:05;99015.94;;;6.06;78.67
4024;BME280;2026;51.002;13.668;2023-02-03T17:08:08;99013.59;;;6.12;77.57
4024;BME280;2026;51.002;13.668;2023-02-03T17:13:14;99020.78;;;6.10;77.37
4024;BME280;2026;51.002;13.668;2023-02-03T17:18:18;99014.22;;;6.14;75.88
4024;BME280;2026;51.002;13.668;2023-02-03T17:23:21;99015.22;;;6.13;76.14
4024;BME280;2026;51.002;13.668;2023-02-03T17:28:25;99018.44;;;6.15;75.53
4024;BME280;2026;51.002;13.668;2023-02-03T17:33:29;99027.63;;;6.11;75.72
4024;BME280;2026;51.002;13.668;2023-02-03T17:38:35;99032.31;;;6.00;77.35
4024;BME280;2026;51.002;13.668;2023-02-03T17:43:54;99024.72;;;6.20;75.17
4024;BME280;2026;51.002;13.668;2023-02-03T17:49:14;99036.09;;;6.34;72.93
4024;BME280;2026;51.002;13.668;2023-02-03T17:54:34;99048.09;;;6.35;72.70
4024;BME280;2026;51.002;13.668;2023-02-03T17:59:39;99044.28;;;6.31;72.57
4024;BME280;2026;51.002;13.668;2023-02-03T18:04:42;99058.91;;;6.32;72.68
4024;BME280;2026;51.002;13.668;2023-02-03T18:09:45;99072.72;;;6.33;71.30
4024;BME280;2026;51.002;13.668;2023-02-03T18:14:49;99075.25;;;6.26;71.19
4024;BME280;2026;51.002;13.668;2023-02-03T18:19:52;99083.25;;;6.25;71.53
4024;BME280;2026;51.002;13.668;2023-02-03T18:24:57;99099.03;;;6.23;72.37
4024;BME280;2026;51.002;13.668;2023-02-03T18:30:03;99094.84;;;6.07;73.20
4024;BME280;2026;51.002;13.668;2023-02-03T18:35:06;99109.03;;;6.04;72.88
4024;BME280;2026;51.002;13.668;2023-02-03T18:40:13;99122.50;;;6.08;72.39
4024;BME280;2026;51.002;13.668;2023-02-03T18:45:18;99108.03;;;6.05;72.45
4024;BME280;2026;51.002;13.668;2023-02-03T18:50:21;99104.25;;;6.08;72.12
4024;BME280;2026;51.002;13.668;2023-02-03T18:55:24;99105.09;;;6.08;70.92
4024;BME280;2026;51.002;13.668;2023-02-03T19:00:28;99122.59;;;6.00;71.48
4024;BME280;2026;51.002;13.668;2023-02-03T19:05:32;99118.09;;;5.93;71.53
4024;BME280;2026;51.002;13.668;2023-02-03T19:10:35;99126.97;;;5.99;71.05
4024;BME280;2026;51.002;13.668;2023-02-03T19:15:40;99107.50;;;5.95;71.53
4024;BME280;2026;51.002;13.668;2023-02-03T19:20:44;99126.78;;;6.01;71.12
4024;BME280;2026;51.002;13.668;2023-02-03T19:25:49;99106.78;;;6.01;70.92
4024;BME280;2026;51.002;13.668;2023-02-03T19:30:53;99108.50;;;5.94;70.55
4024;BME280;2026;51.002;13.668;2023-02-03T19:36:08;99099.53;;;5.97;70.55
4024;BME280;2026;51.002;13.668;2023-02-03T19:41:11;99110.81;;;5.89;70.84
4024;BME280;2026;51.002;13.668;2023-02-03T19:46:16;99120.16;;;5.83;71.72
4024;BME280;2026;51.002;13.668;2023-02-03T19:51:19;99128.03;;;5.75;72.80
4024;BME280;2026;51.002;13.668;2023-02-03T19:56:22;99117.66;;;5.75;73.71
4024;BME280;2026;51.002;13.668;2023-02-03T20:01:26;99125.69;;;5.65;75.29
4024;BME280;2026;51.002;13.668;2023-02-03T20:06:30;99144.06;;;5.48;78.06
4024;BME280;2026;51.002;13.668;2023-02-03T20:11:33;99156.97;;;5.18;81.62
4024;BME280;2026;51.002;13.668;2023-02-03T20:16:37;99144.66;;;5.12;84.15
4024;BME280;2026;51.002;13.668;2023-02-03T20:21:40;99171.22;;;4.99;84.82
4024;BME280;2026;51.002;13.668;2023-02-03T20:26:43;99154.19;;;4.96;85.39
4024;BME280;2026;51.002;13.668;2023-02-03T20:31:47;99173.75;;;4.84;86.52
4024;BME280;2026;51.002;13.668;2023-02-03T20:36:52;99151.38;;;4.75;88.00
4024;BME280;2026;51.002;13.668;2023-02-03T20:41:56;99159.41;;;4.65;89.37
4024;BME280;2026;51.002;13.668;2023-02-03T20:47:00;99155.50;;;4.61;89.92
4024;BME280;2026;51.002;13.668;2023-02-03T20:52:08;99163.19;;;4.54;90.83
4024;BME280;2026;51.002;13.668;2023-02-03T20:57:12;99172.25;;;4.58;90.84
4024;BME280;2026;51.002;13.668;2023-02-03T21:02:22;99165.97;;;4.44;91.40
4024;BME280;2026;51.002;13.668;2023-02-03T21:07:34;99154.78;;;4.43;92.10
4024;BME280;2026;51.002;13.668;2023-02-03T21:12:37;99157.72;;;4.40;92.05
4024;BME280;2026;51.002;13.668;2023-02-03T21:17:41;99166.81;;;4.45;92.42
4024;BME280;2026;51.002;13.668;2023-02-03T21:22:44;99163.22;;;4.46;91.83
4024;BME280;2026;51.002;13.668;2023-02-03T21:27:50;99168.09;;;4.40;92.36
4024;BME280;2026;51.002;13.668;2023-02-03T21:32:55;99177.31;;;4.51;91.81
4024;BME280;2026;51.002;13.668;2023-02-03T21:38:00;99186.09;;;4.50;92.08
4024;BME280;2026;51.002;13.668;2023-02-03T21:43:15;99187.19;;;4.56;90.92
4024;BME280;2026;51.002;13.668;2023-02-03T21:48:28;99192.34;;;4.64;89.44
4024;BME280;2026;51.002;13.668;2023-02-03T21:53:33;99188.44;;;4.68;89.50
4024;BME280;2026;51.002;13.668;2023-02-03T21:58:36;99222.38;;;4.67;89.58
4024;BME280;2026;51.002;13.668;2023-02-03T22:03:42;99215.41;;;4.59;89.57
4024;BME280;2026;51.002;13.668;2023-02-03T22:08:48;99221.41;;;4.60;90.03
4024;BME280;2026;51.002;13.668;2023-02-03T22:13:52;99240.06;;;4.63;90.72
4024;BME280;2026;51.002;13.668;2023-02-03T22:18:56;99248.53;;;4.57;91.15
4024;BME280;2026;51.002;13.668;2023-02-03T22:24:00;99251.44;;;4.62;90.25
4024;BME280;2026;51.002;13.668;2023-02-03T22:29:03;99260.03;;;4.63;91.04
4024;BME280;2026;51.002;13.668;2023-02-03T22:34:07;99265.13;;;4.48;92.02
4024;BME280;2026;51.002;13.668;2023-02-03T22:39:10;99269.47;;;4.47;91.47
4024;BME280;2026;51.002;13.668;2023-02-03T22:44:13;99272.97;;;4.23;93.30
4024;BME280;2026;51.002;13.668;2023-02-03T22:49:19;99277.97;;;4.33;93.53
4024;BME280;2026;51.002;13.668;2023-02-03T22:54:22;99285.78;;;4.24;94.85
4024;BME280;2026;51.002;13.668;2023-02-03T22:59:25;99280.09;;;4.29;95.48
4024;BME280;2026;51.002;13.668;2023-02-03T23:04:29;99267.13;;;4.21;96.33
4024;BME280;2026;51.002;13.668;2023-02-03T23:09:32;99290.16;;;4.24;95.82
4024;BME280;2026;51.002;13.668;2023-02-03T23:14:35;99282.69;;;4.21;96.18
4024;BME280;2026;51.002;13.668;2023-02-03T23:19:39;99284.81;;;4.17;96.17
4024;BME280;2026;51.002;13.668;2023-02-03T23:24:42;99284.63;;;4.27;95.55
4024;BME280;2026;51.002;13.668;2023-02-03T23:29:45;99295.69;;;4.21;95.94
4024;BME280;2026;51.002;13.668;2023-02-03T23:34:49;99319.97;;;4.20;95.68
4024;BME280;2026;51.002;13.668;2023-02-03T23:40:10;99293.38;;;4.18;96.03
4024;BME280;2026;51.002;13.668;2023-02-03T23:45:13;99314.47;;;4.23;96.88
4024;BME280;2026;51.002;13.668;2023-02-03T23:50:18;99310.28;;;4.22;96.33
4024;BME280;2026;51.002;13.668;2023-02-03T23:55:22;99340.44;;;4.23;96.92
